sensor_id;sensor_type;location;lat;lon;timestamp;temperature;humidity
7174;DHT22;3628;48.654;8.932;2023-06-22T00:01:56;21.60;99.90
7174;DHT22;3628;48.654;8.932;2023-06-22T00:04:22;21.60;99.90
7174;DHT22;3628;48.654;8.932;2023-06-22T00:06:47;21.60;99.90
7174;DHT22;3628;48.654;8.932;2023-06-22T00:09:13;21.60;99.90
7174;DHT22;3628;48.654;8.932;2023-06-22T00:11:38;21.70;99.90
7174;DHT22;3628;48.654;8.932;2023-06-22T00:14:04;21.70;99.90
7174;DHT22;3628;48.654;8.932;2023-06-22T00:16:32;21.70;99.90
7174;DHT22;3628;48.654;8.932;2023-06-22T00:18:58;21.60;99.90
7174;DHT22;3628;48.654;8.932;2023-06-22T00:21:29;21.60;99.90
7174;DHT22;3628;48.654;8.932;2023-06-22T00:23:54;21.60;99.90
7174;DHT22;3628;48.654;8.932;2023-06-22T00:26:21;21.50;99.90
7174;DHT22;3628;48.654;8.932;2023-06-22T00:28:47;21.50;99.90
7174;DHT22;3628;48.654;8.932;2023-06-22T00:31:12;21.40;99.90
7174;DHT22;3628;48.654;8.932;2023-06-22T00:33:38;21.20;99.90
7174;DHT22;3628;48.654;8.932;2023-06-22T00:36:04;21.00;99.90
7174;DHT22;3628;48.654;8.932;2023-06-22T00:38:30;21.10;99.90
7174;DHT22;3628;48.654;8.932;2023-06-22T00:40:55;20.90;99.90
7174;DHT22;3628;48.654;8.932;2023-06-22T00:43:21;20.80;99.90
7174;DHT22;3628;48.654;8.932;2023-06-22T00:45:46;20.70;99.90
7174;DHT22;3628;48.654;8.932;2023-06-22T00:48:14;20.60;99.90
7174;DHT22;3628;48.654;8.932;2023-06-22T00:50:40;20.70;99.90
7174;DHT22;3628;48.654;8.932;2023-06-22T00:53:08;20.50;99.90
7174;DHT22;3628;48.654;8.932;2023-06-22T00:55:38;20.30;99.90
7174;DHT22;3628;48.654;8.932;2023-06-22T00:58:06;20.10;99.90
7174;DHT22;3628;48.654;8.932;2023-06-22T01:00:35;20.30;99.90
7174;DHT22;3628;48.654;8.932;2023-06-22T01:03:02;20.30;99.90
7174;DHT22;3628;48.654;8.932;2023-06-22T01:05:27;20.20;99.90
7174;DHT22;3628;48.654;8.932;2023-06-22T01:08:06;20.20;99.90
7174;DHT22;3628;48.654;8.932;2023-06-22T01:10:43;20.30;99.90
7174;DHT22;3628;48.654;8.932;2023-06-22T01:16:23;20.20;99.90
7174;DHT22;3628;48.654;8.932;2023-06-22T01:18:52;20.20;99.90
7174;DHT22;3628;48.654;8.932;2023-06-22T01:21:21;20.20;99.90
7174;DHT22;3628;48.654;8.932;2023-06-22T01:29:11;20.20;99.90
7174;DHT22;3628;48.654;8.932;2023-06-22T01:31:39;20.50;99.90
7174;DHT22;3628;48.654;8.932;2023-06-22T01:34:07;20.70;99.90
7174;DHT22;3628;48.654;8.932;2023-06-22T01:36:34;20.80;99.90
7174;DHT22;3628;48.654;8.932;2023-06-22T01:39:02;20.80;99.90
7174;DHT22;3628;48.654;8.932;2023-06-22T01:41:30;20.70;99.90
7174;DHT22;3628;48.654;8.932;2023-06-22T01:43:56;20.70;99.90
7174;DHT22;3628;48.654;8.932;2023-06-22T01:46:23;20.60;99.90
7174;DHT22;3628;48.654;8.932;2023-06-22T01:48:49;20.60;99.90
7174;DHT22;3628;48.654;8.932;2023-06-22T01:51:16;20.60;99.90
7174;DHT22;3628;48.654;8.932;2023-06-22T01:53:41;20.50;99.90
7174;DHT22;3628;48.654;8.932;2023-06-22T01:56:08;20.20;99.90
7174;DHT22;3628;48.654;8.932;2023-06-22T01:58:37;20.10;99.90
7174;DHT22;3628;48.654;8.932;2023-06-22T02:01:10;20.40;99.90
7174;DHT22;3628;48.654;8.932;2023-06-22T02:04:03;20.50;99.90
7174;DHT22;3628;48.654;8.932;2023-06-22T02:06:34;20.20;99.90
7174;DHT22;3628;48.654;8.932;2023-06-22T02:09:06;20.30;99.90
7174;DHT22;3628;48.654;8.932;2023-06-22T02:11:33;20.20;99.90
7174;DHT22;3628;48.654;8.932;2023-06-22T02:14:00;20.30;99.90
7174;DHT22;3628;48.654;8.932;2023-06-22T02:16:26;20.00;99.90
7174;DHT22;3628;48.654;8.932;2023-06-22T02:18:55;19.90;99.90
7174;DHT22;3628;48.654;8.932;2023-06-22T02:21:23;19.70;99.90
7174;DHT22;3628;48.654;8.932;2023-06-22T02:23:49;19.70;99.90
7174;DHT22;3628;48.654;8.932;2023-06-22T02:26:17;19.70;99.90
7174;DHT22;3628;48.654;8.932;2023-06-22T02:28:42;19.80;99.90
7174;DHT22;3628;48.654;8.932;2023-06-22T02:31:08;19.70;99.90
7174;DHT22;3628;48.654;8.932;2023-06-22T02:33:34;19.60;99.90
7174;DHT22;3628;48.654;8.932;2023-06-22T02:35:59;19.50;99.90
7174;DHT22;3628;48.654;8.932;2023-06-22T02:38:25;19.60;99.90
7174;DHT22;3628;48.654;8.932;2023-06-22T02:40:50;19.80;99.90
7174;DHT22;3628;48.654;8.932;2023-06-22T02:43:16;19.90;99.90
7174;DHT22;3628;48.654;8.932;2023-06-22T02:45:42;20.10;99.90
7174;DHT22;3628;48.654;8.932;2023-06-22T02:48:07;20.20;99.90
7174;DHT22;3628;48.654;8.932;2023-06-22T02:50:33;20.10;99.90
7174;DHT22;3628;48.654;8.932;2023-06-22T02:52:58;19.90;99.90
7174;DHT22;3628;48.654;8.932;2023-06-22T02:55:24;19.80;99.90
7174;DHT22;3628;48.654;8.932;2023-06-22T02:57:49;20.00;99.90
7174;DHT22;3628;48.654;8.932;2023-06-22T03:00:19;20.10;99.90
7174;DHT22;3628;48.654;8.932;2023-06-22T03:02:46;20.30;99.90
7174;DHT22;3628;48.654;8.932;2023-06-22T03:05:12;20.40;99.90
7174;DHT22;3628;48.654;8.932;2023-06-22T03:07:40;20.50;99.90
7174;DHT22;3628;48.654;8.932;2023-06-22T03:10:10;20.30;99.90
7174;DHT22;3628;48.654;8.932;2023-06-22T03:12:37;20.10;99.90
7174;DHT22;3628;48.654;8.932;2023-06-22T03:15:12;19.90;99.90
7174;DHT22;3628;48.654;8.932;2023-06-22T03:17:39;19.80;99.90
7174;DHT22;3628;48.654;8.932;2023-06-22T03:20:05;20.00;99.90
7174;DHT22;3628;48.654;8.932;2023-06-22T03:22:39;20.00;99.90
7174;DHT22;3628;48.654;8.932;2023-06-22T03:25:05;20.10;99.90
7174;DHT22;3628;48.654;8.932;2023-06-22T03:27:36;20.00;99.90
7174;DHT22;3628;48.654;8.932;2023-06-22T03:30:03;20.10;99.90
7174;DHT22;3628;48.654;8.932;2023-06-22T03:32:28;20.20;99.90
7174;DHT22;3628;48.654;8.932;2023-06-22T03:34:54;20.20;99.90
7174;DHT22;3628;48.654;8.932;2023-06-22T03:37:19;20.30;99.90
7174;DHT22;3628;48.654;8.932;2023-06-22T03:39:45;20.30;99.90
7174;DHT22;3628;48.654;8.932;2023-06-22T03:42:10;20.10;99.90
7174;DHT22;3628;48.654;8.932;2023-06-22T03:44:36;20.00;99.90
7174;DHT22;3628;48.654;8.932;2023-06-22T03:47:03;19.70;99.90
7174;DHT22;3628;48.654;8.932;2023-06-22T03:49:29;19.70;99.90
7174;DHT22;3628;48.654;8.932;2023-06-22T03:51:55;19.90;99.90
7174;DHT22;3628;48.654;8.932;2023-06-22T03:54:20;19.90;99.90
7174;DHT22;3628;48.654;8.932;2023-06-22T03:56:46;20.00;99.90
7174;DHT22;3628;48.654;8.932;2023-06-22T03:59:11;20.20;99.90
7174;DHT22;3628;48.654;8.932;2023-06-22T04:01:37;20.20;99.90
7174;DHT22;3628;48.654;8.932;2023-06-22T04:04:02;20.10;99.90
7174;DHT22;3628;48.654;8.932;2023-06-22T04:06:28;20.10;99.90
7174;DHT22;3628;48.654;8.932;2023-06-22T04:08:53;20.30;99.90
7174;DHT22;3628;48.654;8.932;2023-06-22T04:11:19;20.40;99.90
7174;DHT22;3628;48.654;8.932;2023-06-22T04:13:45;20.60;99.90
7174;DHT22;3628;48.654;8.932;2023-06-22T04:16:10;20.60;99.90
7174;DHT22;3628;48.654;8.932;2023-06-22T04:18:36;20.70;99.90
7174;DHT22;3628;48.654;8.932;2023-06-22T04:21:02;20.70;99.90
7174;DHT22;3628;48.654;8.932;2023-06-22T04:23:27;20.70;99.90
7174;DHT22;3628;48.654;8.932;2023-06-22T04:25:53;20.70;99.90
7174;DHT22;3628;48.654;8.932;2023-06-22T04:28:19;20.90;99.90
7174;DHT22;3628;48.654;8.932;2023-06-22T04:30:44;21.00;99.90
7174;DHT22;3628;48.654;8.932;2023-06-22T04:33:16;21.00;99.90
7174;DHT22;3628;48.654;8.932;2023-06-22T04:35:42;21.20;99.90
7174;DHT22;3628;48.654;8.932;2023-06-22T04:38:07;21.30;99.90
7174;DHT22;3628;48.654;8.932;2023-06-22T04:40:33;21.40;99.90
7174;DHT22;3628;48.654;8.932;2023-06-22T04:42:59;21.50;99.90
7174;DHT22;3628;48.654;8.932;2023-06-22T04:45:28;21.50;99.90
7174;DHT22;3628;48.654;8.932;2023-06-22T04:47:54;21.60;99.90
7174;DHT22;3628;48.654;8.932;2023-06-22T04:50:20;21.60;99.90
7174;DHT22;3628;48.654;8.932;2023-06-22T04:52:47;21.80;99.90
7174;DHT22;3628;48.654;8.932;2023-06-22T04:55:13;21.80;99.90
7174;DHT22;3628;48.654;8.932;2023-06-22T04:57:44;21.90;99.90
7174;DHT22;3628;48.654;8.932;2023-06-22T05:00:17;22.00;99.90
7174;DHT22;3628;48.654;8.932;2023-06-22T05:02:46;22.00;99.90
7174;DHT22;3628;48.654;8.932;2023-06-22T05:05:12;22.00;99.90
7174;DHT22;3628;48.654;8.932;2023-06-22T05:07:47;22.00;99.90
7174;DHT22;3628;48.654;8.932;2023-06-22T05:10:21;22.10;99.90
7174;DHT22;3628;48.654;8.932;2023-06-22T05:12:46;22.10;99.90
7174;DHT22;3628;48.654;8.932;2023-06-22T05:15:12;22.20;99.90
7174;DHT22;3628;48.654;8.932;2023-06-22T05:17:38;22.30;99.90
7174;DHT22;3628;48.654;8.932;2023-06-22T05:20:11;22.40;99.90
7174;DHT22;3628;48.654;8.932;2023-06-22T05:22:37;22.60;99.90
7174;DHT22;3628;48.654;8.932;2023-06-22T05:25:03;22.70;99.90
7174;DHT22;3628;48.654;8.932;2023-06-22T05:27:28;22.90;99.90
7174;DHT22;3628;48.654;8.932;2023-06-22T05:29:54;23.00;99.90
7174;DHT22;3628;48.654;8.932;2023-06-22T05:32:20;23.10;99.90
7174;DHT22;3628;48.654;8.932;2023-06-22T05:34:46;23.10;99.90
7174;DHT22;3628;48.654;8.932;2023-06-22T05:37:11;23.20;99.90
7174;DHT22;3628;48.654;8.932;2023-06-22T05:39:38;23.20;99.90
7174;DHT22;3628;48.654;8.932;2023-06-22T05:42:07;23.00;99.90
7174;DHT22;3628;48.654;8.932;2023-06-22T05:44:33;23.10;99.90
7174;DHT22;3628;48.654;8.932;2023-06-22T05:46:59;23.10;99.90
7174;DHT22;3628;48.654;8.932;2023-06-22T05:49:24;23.10;99.90
7174;DHT22;3628;48.654;8.932;2023-06-22T05:51:55;23.20;99.90
7174;DHT22;3628;48.654;8.932;2023-06-22T05:54:20;23.20;99.90
7174;DHT22;3628;48.654;8.932;2023-06-22T05:56:46;23.30;99.90
7174;DHT22;3628;48.654;8.932;2023-06-22T05:59:11;23.30;99.90
7174;DHT22;3628;48.654;8.932;2023-06-22T06:01:37;23.40;99.90
7174;DHT22;3628;48.654;8.932;2023-06-22T06:04:04;23.50;99.90
7174;DHT22;3628;48.654;8.932;2023-06-22T06:06:30;23.60;99.90
7174;DHT22;3628;48.654;8.932;2023-06-22T06:08:55;23.70;99.90
7174;DHT22;3628;48.654;8.932;2023-06-22T06:11:21;23.90;99.90
7174;DHT22;3628;48.654;8.932;2023-06-22T06:13:47;24.00;99.90
7174;DHT22;3628;48.654;8.932;2023-06-22T06:16:13;24.20;99.90
7174;DHT22;3628;48.654;8.932;2023-06-22T06:18:38;24.30;99.90
7174;DHT22;3628;48.654;8.932;2023-06-22T06:21:04;24.40;99.90
7174;DHT22;3628;48.654;8.932;2023-06-22T06:23:29;24.40;99.90
7174;DHT22;3628;48.654;8.932;2023-06-22T06:25:55;24.50;99.90
7174;DHT22;3628;48.654;8.932;2023-06-22T06:28:21;24.60;99.90
7174;DHT22;3628;48.654;8.932;2023-06-22T06:30:47;24.80;99.90
7174;DHT22;3628;48.654;8.932;2023-06-22T06:33:13;24.80;99.90
7174;DHT22;3628;48.654;8.932;2023-06-22T06:35:38;24.90;99.90
7174;DHT22;3628;48.654;8.932;2023-06-22T06:38:04;24.90;99.90
7174;DHT22;3628;48.654;8.932;2023-06-22T06:40:29;25.00;99.90
7174;DHT22;3628;48.654;8.932;2023-06-22T06:42:55;25.20;99.90
7174;DHT22;3628;48.654;8.932;2023-06-22T06:45:22;25.40;99.90
7174;DHT22;3628;48.654;8.932;2023-06-22T06:47:48;25.50;99.90
7174;DHT22;3628;48.654;8.932;2023-06-22T06:50:14;25.60;99.90
7174;DHT22;3628;48.654;8.932;2023-06-22T06:52:40;25.60;99.90
7174;DHT22;3628;48.654;8.932;2023-06-22T06:55:07;25.70;99.90
7174;DHT22;3628;48.654;8.932;2023-06-22T06:57:35;25.60;99.90
7174;DHT22;3628;48.654;8.932;2023-06-22T07:00:03;25.80;99.90
7174;DHT22;3628;48.654;8.932;2023-06-22T07:02:34;25.80;99.90
7174;DHT22;3628;48.654;8.932;2023-06-22T07:05:00;25.90;99.90
7174;DHT22;3628;48.654;8.932;2023-06-22T07:07:29;26.10;99.90
7174;DHT22;3628;48.654;8.932;2023-06-22T07:09:55;26.20;99.90
7174;DHT22;3628;48.654;8.932;2023-06-22T07:12:20;26.40;99.90
7174;DHT22;3628;48.654;8.932;2023-06-22T07:14:46;26.50;99.90
7174;DHT22;3628;48.654;8.932;2023-06-22T07:17:12;26.60;99.90
7174;DHT22;3628;48.654;8.932;2023-06-22T07:19:37;26.70;99.90
7174;DHT22;3628;48.654;8.932;2023-06-22T07:22:03;26.80;99.90
7174;DHT22;3628;48.654;8.932;2023-06-22T07:24:29;26.80;99.90
7174;DHT22;3628;48.654;8.932;2023-06-22T07:26:54;27.00;99.90
7174;DHT22;3628;48.654;8.932;2023-06-22T07:29:20;27.00;99.90
7174;DHT22;3628;48.654;8.932;2023-06-22T07:31:47;27.20;99.90
7174;DHT22;3628;48.654;8.932;2023-06-22T07:34:13;27.30;99.90
7174;DHT22;3628;48.654;8.932;2023-06-22T07:36:38;27.50;99.90
7174;DHT22;3628;48.654;8.932;2023-06-22T07:39:04;27.70;99.90
7174;DHT22;3628;48.654;8.932;2023-06-22T07:41:30;27.90;99.90
7174;DHT22;3628;48.654;8.932;2023-06-22T07:43:56;28.10;99.90
7174;DHT22;3628;48.654;8.932;2023-06-22T07:46:22;28.10;99.90
7174;DHT22;3628;48.654;8.932;2023-06-22T07:48:48;28.00;99.90
7174;DHT22;3628;48.654;8.932;2023-06-22T07:51:13;28.30;99.90
7174;DHT22;3628;48.654;8.932;2023-06-22T07:53:43;28.10;99.90
7174;DHT22;3628;48.654;8.932;2023-06-22T07:56:13;28.20;99.90
7174;DHT22;3628;48.654;8.932;2023-06-22T07:58:39;28.50;99.90
7174;DHT22;3628;48.654;8.932;2023-06-22T08:01:05;28.70;99.90
7174;DHT22;3628;48.654;8.932;2023-06-22T08:03:31;28.70;99.90
7174;DHT22;3628;48.654;8.932;2023-06-22T08:05:57;28.50;99.90
7174;DHT22;3628;48.654;8.932;2023-06-22T08:08:23;28.70;99.90
7174;DHT22;3628;48.654;8.932;2023-06-22T08:10:49;29.10;99.90
7174;DHT22;3628;48.654;8.932;2023-06-22T08:13:15;29.40;99.90
7174;DHT22;3628;48.654;8.932;2023-06-22T08:15:40;29.50;99.90
7174;DHT22;3628;48.654;8.932;2023-06-22T08:18:06;29.50;99.90
7174;DHT22;3628;48.654;8.932;2023-06-22T08:20:31;29.30;99.90
7174;DHT22;3628;48.654;8.932;2023-06-22T08:22:58;29.20;99.90
7174;DHT22;3628;48.654;8.932;2023-06-22T08:25:26;29.30;99.90
7174;DHT22;3628;48.654;8.932;2023-06-22T08:27:51;29.50;99.90
7174;DHT22;3628;48.654;8.932;2023-06-22T08:30:17;29.60;99.90
7174;DHT22;3628;48.654;8.932;2023-06-22T08:32:44;29.30;99.90
7174;DHT22;3628;48.654;8.932;2023-06-22T08:35:09;29.30;99.90
7174;DHT22;3628;48.654;8.932;2023-06-22T08:37:35;29.40;99.90
7174;DHT22;3628;48.654;8.932;2023-06-22T08:40:03;29.50;99.90
7174;DHT22;3628;48.654;8.932;2023-06-22T08:42:30;29.40;99.90
7174;DHT22;3628;48.654;8.932;2023-06-22T08:45:03;29.50;99.90
7174;DHT22;3628;48.654;8.932;2023-06-22T08:47:31;29.60;99.90
7174;DHT22;3628;48.654;8.932;2023-06-22T08:49:57;29.70;99.90
7174;DHT22;3628;48.654;8.932;2023-06-22T08:52:23;29.90;99.90
7174;DHT22;3628;48.654;8.932;2023-06-22T08:54:49;29.90;99.90
7174;DHT22;3628;48.654;8.932;2023-06-22T08:57:15;29.90;99.90
7174;DHT22;3628;48.654;8.932;2023-06-22T08:59:41;30.00;99.90
7174;DHT22;3628;48.654;8.932;2023-06-22T09:02:07;30.00;99.90
7174;DHT22;3628;48.654;8.932;2023-06-22T09:04:33;30.00;99.90
7174;DHT22;3628;48.654;8.932;2023-06-22T09:07:01;30.00;99.90
7174;DHT22;3628;48.654;8.932;2023-06-22T09:09:26;30.20;99.90
7174;DHT22;3628;48.654;8.932;2023-06-22T09:11:52;30.50;99.90
7174;DHT22;3628;48.654;8.932;2023-06-22T09:14:17;30.70;99.90
7174;DHT22;3628;48.654;8.932;2023-06-22T09:16:43;30.90;99.60
7174;DHT22;3628;48.654;8.932;2023-06-22T09:19:09;31.20;99.30
7174;DHT22;3628;48.654;8.932;2023-06-22T09:21:34;31.30;98.80
7174;DHT22;3628;48.654;8.932;2023-06-22T09:24:00;31.50;98.10
7174;DHT22;3628;48.654;8.932;2023-06-22T09:26:25;31.70;97.30
7174;DHT22;3628;48.654;8.932;2023-06-22T09:28:51;31.50;96.60
7174;DHT22;3628;48.654;8.932;2023-06-22T09:31:17;31.80;96.30
7174;DHT22;3628;48.654;8.932;2023-06-22T09:33:43;32.10;96.00
7174;DHT22;3628;48.654;8.932;2023-06-22T09:36:08;32.30;94.80
7174;DHT22;3628;48.654;8.932;2023-06-22T09:38:37;32.60;94.00
7174;DHT22;3628;48.654;8.932;2023-06-22T09:41:03;32.60;93.30
7174;DHT22;3628;48.654;8.932;2023-06-22T09:43:32;32.70;92.90
7174;DHT22;3628;48.654;8.932;2023-06-22T09:46:01;32.90;92.60
7174;DHT22;3628;48.654;8.932;2023-06-22T09:48:27;33.00;91.50
7174;DHT22;3628;48.654;8.932;2023-06-22T09:50:54;33.50;91.00
7174;DHT22;3628;48.654;8.932;2023-06-22T09:53:19;33.70;90.40
7174;DHT22;3628;48.654;8.932;2023-06-22T09:55:45;33.90;89.20
7174;DHT22;3628;48.654;8.932;2023-06-22T09:58:10;34.00;87.70
7174;DHT22;3628;48.654;8.932;2023-06-22T10:00:36;33.70;85.60
7174;DHT22;3628;48.654;8.932;2023-06-22T10:03:01;33.60;85.70
7174;DHT22;3628;48.654;8.932;2023-06-22T10:05:27;33.60;84.90
7174;DHT22;3628;48.654;8.932;2023-06-22T10:07:52;33.80;83.80
7174;DHT22;3628;48.654;8.932;2023-06-22T10:10:18;33.60;83.70
7174;DHT22;3628;48.654;8.932;2023-06-22T10:12:48;33.70;83.30
7174;DHT22;3628;48.654;8.932;2023-06-22T10:15:19;33.90;82.90
7174;DHT22;3628;48.654;8.932;2023-06-22T10:17:46;33.90;82.10
7174;DHT22;3628;48.654;8.932;2023-06-22T10:20:12;33.90;82.00
7174;DHT22;3628;48.654;8.932;2023-06-22T10:22:42;34.00;82.80
7174;DHT22;3628;48.654;8.932;2023-06-22T10:25:09;34.20;83.40
7174;DHT22;3628;48.654;8.932;2023-06-22T10:27:35;34.30;83.30
7174;DHT22;3628;48.654;8.932;2023-06-22T10:30:01;34.40;82.80
7174;DHT22;3628;48.654;8.932;2023-06-22T10:32:26;34.40;82.00
7174;DHT22;3628;48.654;8.932;2023-06-22T10:34:54;34.50;80.90
7174;DHT22;3628;48.654;8.932;2023-06-22T10:37:19;34.60;80.70
7174;DHT22;3628;48.654;8.932;2023-06-22T10:39:45;34.90;79.30
7174;DHT22;3628;48.654;8.932;2023-06-22T10:42:11;35.40;78.50
7174;DHT22;3628;48.654;8.932;2023-06-22T10:44:37;35.70;77.70
7174;DHT22;3628;48.654;8.932;2023-06-22T10:47:04;35.50;76.10
7174;DHT22;3628;48.654;8.932;2023-06-22T10:49:30;35.80;75.40
7174;DHT22;3628;48.654;8.932;2023-06-22T10:51:55;35.70;75.40
7174;DHT22;3628;48.654;8.932;2023-06-22T10:54:21;35.80;74.10
7174;DHT22;3628;48.654;8.932;2023-06-22T10:56:46;35.70;75.10
7174;DHT22;3628;48.654;8.932;2023-06-22T10:59:12;35.70;74.20
7174;DHT22;3628;48.654;8.932;2023-06-22T11:01:37;35.60;74.60
7174;DHT22;3628;48.654;8.932;2023-06-22T11:04:03;35.50;74.50
7174;DHT22;3628;48.654;8.932;2023-06-22T11:06:29;35.50;74.30
7174;DHT22;3628;48.654;8.932;2023-06-22T11:08:55;35.60;74.30
7174;DHT22;3628;48.654;8.932;2023-06-22T11:11:20;35.50;73.60
7174;DHT22;3628;48.654;8.932;2023-06-22T11:13:46;35.40;74.40
7174;DHT22;3628;48.654;8.932;2023-06-22T11:16:11;35.00;74.80
7174;DHT22;3628;48.654;8.932;2023-06-22T11:18:38;34.90;75.30
7174;DHT22;3628;48.654;8.932;2023-06-22T11:21:03;34.60;74.30
7174;DHT22;3628;48.654;8.932;2023-06-22T11:23:29;34.40;75.10
7174;DHT22;3628;48.654;8.932;2023-06-22T11:25:55;34.30;75.10
7174;DHT22;3628;48.654;8.932;2023-06-22T11:28:20;34.10;75.10
7174;DHT22;3628;48.654;8.932;2023-06-22T11:30:46;34.20;75.80
7174;DHT22;3628;48.654;8.932;2023-06-22T11:33:11;34.40;76.30
7174;DHT22;3628;48.654;8.932;2023-06-22T11:35:37;34.30;77.00
7174;DHT22;3628;48.654;8.932;2023-06-22T11:38:03;34.60;77.30
7174;DHT22;3628;48.654;8.932;2023-06-22T11:40:30;34.80;76.90
7174;DHT22;3628;48.654;8.932;2023-06-22T11:42:55;34.40;78.10
7174;DHT22;3628;48.654;8.932;2023-06-22T11:45:21;34.30;77.40
7174;DHT22;3628;48.654;8.932;2023-06-22T11:47:47;34.10;77.40
7174;DHT22;3628;48.654;8.932;2023-06-22T11:50:13;34.00;78.40
7174;DHT22;3628;48.654;8.932;2023-06-22T11:52:39;33.80;79.30
7174;DHT22;3628;48.654;8.932;2023-06-22T11:55:05;33.50;80.30
7174;DHT22;3628;48.654;8.932;2023-06-22T11:57:36;33.20;81.10
7174;DHT22;3628;48.654;8.932;2023-06-22T12:00:03;33.20;82.30
7174;DHT22;3628;48.654;8.932;2023-06-22T12:02:40;33.20;82.80
7174;DHT22;3628;48.654;8.932;2023-06-22T12:05:05;32.90;83.40
7174;DHT22;3628;48.654;8.932;2023-06-22T12:07:31;32.80;83.10
7174;DHT22;3628;48.654;8.932;2023-06-22T12:09:57;32.70;83.10
7174;DHT22;3628;48.654;8.932;2023-06-22T12:12:22;32.80;84.20
7174;DHT22;3628;48.654;8.932;2023-06-22T12:14:48;33.10;83.70
7174;DHT22;3628;48.654;8.932;2023-06-22T12:17:13;33.20;82.80
7174;DHT22;3628;48.654;8.932;2023-06-22T12:19:39;33.50;82.60
7174;DHT22;3628;48.654;8.932;2023-06-22T12:22:04;33.30;82.70
7174;DHT22;3628;48.654;8.932;2023-06-22T12:24:30;33.10;83.10
7174;DHT22;3628;48.654;8.932;2023-06-22T12:26:55;32.80;84.20
7174;DHT22;3628;48.654;8.932;2023-06-22T12:29:21;32.80;85.10
7174;DHT22;3628;48.654;8.932;2023-06-22T12:31:47;32.90;86.10
7174;DHT22;3628;48.654;8.932;2023-06-22T12:34:12;32.90;86.10
7174;DHT22;3628;48.654;8.932;2023-06-22T12:36:38;32.90;86.60
7174;DHT22;3628;48.654;8.932;2023-06-22T12:39:03;32.60;85.60
7174;DHT22;3628;48.654;8.932;2023-06-22T12:41:29;32.60;84.90
7174;DHT22;3628;48.654;8.932;2023-06-22T12:43:54;32.50;85.90
7174;DHT22;3628;48.654;8.932;2023-06-22T12:46:20;32.30;86.10
7174;DHT22;3628;48.654;8.932;2023-06-22T12:48:45;32.10;86.50
7174;DHT22;3628;48.654;8.932;2023-06-22T12:51:11;32.00;88.10
7174;DHT22;3628;48.654;8.932;2023-06-22T12:53:36;31.70;88.30
7174;DHT22;3628;48.654;8.932;2023-06-22T12:56:02;31.60;89.20
7174;DHT22;3628;48.654;8.932;2023-06-22T12:58:28;31.60;89.40
7174;DHT22;3628;48.654;8.932;2023-06-22T13:00:53;31.70;89.60
7174;DHT22;3628;48.654;8.932;2023-06-22T13:03:19;31.70;89.60
7174;DHT22;3628;48.654;8.932;2023-06-22T13:05:44;31.70;89.40
7174;DHT22;3628;48.654;8.932;2023-06-22T13:08:10;31.80;89.30
7174;DHT22;3628;48.654;8.932;2023-06-22T13:10:36;32.00;89.80
7174;DHT22;3628;48.654;8.932;2023-06-22T13:13:01;32.00;87.90
7174;DHT22;3628;48.654;8.932;2023-06-22T13:15:28;32.10;87.30
7174;DHT22;3628;48.654;8.932;2023-06-22T13:17:54;32.30;87.20
7174;DHT22;3628;48.654;8.932;2023-06-22T13:20:19;32.40;86.80
7174;DHT22;3628;48.654;8.932;2023-06-22T13:22:45;32.30;87.40
7174;DHT22;3628;48.654;8.932;2023-06-22T13:25:10;32.50;86.60
7174;DHT22;3628;48.654;8.932;2023-06-22T13:27:44;32.50;85.40
7174;DHT22;3628;48.654;8.932;2023-06-22T13:30:10;32.40;84.90
7174;DHT22;3628;48.654;8.932;2023-06-22T13:32:36;32.60;85.80
7174;DHT22;3628;48.654;8.932;2023-06-22T13:35:01;32.70;85.30
7174;DHT22;3628;48.654;8.932;2023-06-22T13:37:27;32.90;84.30
7174;DHT22;3628;48.654;8.932;2023-06-22T13:39:52;33.00;83.60
7174;DHT22;3628;48.654;8.932;2023-06-22T13:42:18;33.10;84.20
7174;DHT22;3628;48.654;8.932;2023-06-22T13:44:43;33.20;84.00
7174;DHT22;3628;48.654;8.932;2023-06-22T13:47:09;33.20;84.70
7174;DHT22;3628;48.654;8.932;2023-06-22T13:49:35;33.20;84.60
7174;DHT22;3628;48.654;8.932;2023-06-22T13:52:01;33.20;84.90
7174;DHT22;3628;48.654;8.932;2023-06-22T13:54:28;33.20;85.20
7174;DHT22;3628;48.654;8.932;2023-06-22T13:56:54;33.30;85.40
7174;DHT22;3628;48.654;8.932;2023-06-22T13:59:19;33.40;84.00
7174;DHT22;3628;48.654;8.932;2023-06-22T14:01:45;33.50;84.00
7174;DHT22;3628;48.654;8.932;2023-06-22T14:04:11;33.70;83.30
7174;DHT22;3628;48.654;8.932;2023-06-22T14:06:38;34.00;82.30
7174;DHT22;3628;48.654;8.932;2023-06-22T14:09:03;34.30;81.30
7174;DHT22;3628;48.654;8.932;2023-06-22T14:11:29;34.40;77.60
7174;DHT22;3628;48.654;8.932;2023-06-22T14:13:54;34.40;73.90
7174;DHT22;3628;48.654;8.932;2023-06-22T14:16:20;34.30;64.70
7174;DHT22;3628;48.654;8.932;2023-06-22T14:18:46;34.10;60.80
7174;DHT22;3628;48.654;8.932;2023-06-22T14:21:11;34.10;60.30
7174;DHT22;3628;48.654;8.932;2023-06-22T14:23:37;34.10;60.80
7174;DHT22;3628;48.654;8.932;2023-06-22T14:26:03;33.90;57.80
7174;DHT22;3628;48.654;8.932;2023-06-22T14:28:29;33.70;56.90
7174;DHT22;3628;48.654;8.932;2023-06-22T14:30:54;33.50;56.00
7174;DHT22;3628;48.654;8.932;2023-06-22T14:33:20;33.50;56.40
7174;DHT22;3628;48.654;8.932;2023-06-22T14:35:45;33.40;56.30
7174;DHT22;3628;48.654;8.932;2023-06-22T14:38:11;33.20;56.20
7174;DHT22;3628;48.654;8.932;2023-06-22T14:40:36;33.20;56.30
7174;DHT22;3628;48.654;8.932;2023-06-22T14:43:02;33.00;56.30
7174;DHT22;3628;48.654;8.932;2023-06-22T14:45:28;33.00;56.80
7174;DHT22;3628;48.654;8.932;2023-06-22T14:47:53;33.10;56.90
7174;DHT22;3628;48.654;8.932;2023-06-22T14:50:19;33.20;57.10
7174;DHT22;3628;48.654;8.932;2023-06-22T14:52:44;33.60;57.50
7174;DHT22;3628;48.654;8.932;2023-06-22T14:55:10;33.70;56.10
7174;DHT22;3628;48.654;8.932;2023-06-22T14:57:35;33.60;55.00
7174;DHT22;3628;48.654;8.932;2023-06-22T15:00:01;33.40;54.80
7174;DHT22;3628;48.654;8.932;2023-06-22T15:02:27;33.30;54.90
7174;DHT22;3628;48.654;8.932;2023-06-22T15:04:53;33.20;54.90
7174;DHT22;3628;48.654;8.932;2023-06-22T15:07:19;32.80;54.20
7174;DHT22;3628;48.654;8.932;2023-06-22T15:09:45;33.00;55.20
7174;DHT22;3628;48.654;8.932;2023-06-22T15:12:11;33.10;55.40
7174;DHT22;3628;48.654;8.932;2023-06-22T15:14:40;33.20;55.60
7174;DHT22;3628;48.654;8.932;2023-06-22T15:17:09;33.20;56.30
7174;DHT22;3628;48.654;8.932;2023-06-22T15:19:38;33.30;56.10
7174;DHT22;3628;48.654;8.932;2023-06-22T15:22:07;33.40;55.80
7174;DHT22;3628;48.654;8.932;2023-06-22T15:24:34;33.30;56.40
7174;DHT22;3628;48.654;8.932;2023-06-22T15:27:00;32.90;56.50
7174;DHT22;3628;48.654;8.932;2023-06-22T15:29:26;32.70;57.40
7174;DHT22;3628;48.654;8.932;2023-06-22T15:31:52;32.50;57.00
7174;DHT22;3628;48.654;8.932;2023-06-22T15:34:18;32.40;57.10
7174;DHT22;3628;48.654;8.932;2023-06-22T15:36:43;32.10;57.40
7174;DHT22;3628;48.654;8.932;2023-06-22T15:39:09;32.00;58.10
7174;DHT22;3628;48.654;8.932;2023-06-22T15:41:35;32.00;58.90
7174;DHT22;3628;48.654;8.932;2023-06-22T15:44:00;32.00;59.20
7174;DHT22;3628;48.654;8.932;2023-06-22T15:46:26;31.80;58.60
7174;DHT22;3628;48.654;8.932;2023-06-22T15:48:51;31.70;58.90
7174;DHT22;3628;48.654;8.932;2023-06-22T15:51:17;31.50;59.20
7174;DHT22;3628;48.654;8.932;2023-06-22T15:53:42;31.30;60.10
7174;DHT22;3628;48.654;8.932;2023-06-22T15:56:08;31.20;59.40
7174;DHT22;3628;48.654;8.932;2023-06-22T15:58:36;31.00;59.80
7174;DHT22;3628;48.654;8.932;2023-06-22T16:01:02;30.80;59.70
7174;DHT22;3628;48.654;8.932;2023-06-22T16:03:29;30.60;59.90
7174;DHT22;3628;48.654;8.932;2023-06-22T16:05:54;30.50;60.90